Terminal Aerodrome Forecast
Issued by NWS Burlington, VT

Home | Current Version | Previous Version | Text Only | Print | Product List | Glossary On
Versions: 1 2 3 4 5 6 7 8 9 10 11 12 13 14
000
FTUS41 KBTV 231500 AAA
TAFBTV
TAF AMD
KBTV 231559Z 2316/2412 20012G22KT P6SM VCSH BKN050 OVC080
      TEMPO 2316/2318 3SM -TSRA BKN020CB
     FM232000 31011G18KT P6SM BKN040
     FM240200 35008KT P6SM SCT025 BKN080=

USA.gov is the U.S. government's official web portal to all federal, state and local government web resources and services.